»·PEaware :: N8SR KAJO-KVGT

N8SR :: KAJO-KVGT

FLIGHT INFORMATION

Flight Status: Arrived
Operator: Privately registered:
United States
More flights under this callsign
Pilot: Jim C. (23814)
Aircraft: Unknown
(P28U)
More flights by this aircraft type
Origin: KAJO Corona Mun
United States
Destination: KVGT North Las Vegas
United States
More flights between these airports :: More routes between these airports
Route: +PDZ V442 APLES V442 HEC V283 BLD KVGT
File this flight plan on PilotEdge
Remarks:
Altitude:
(Current/Filed)
11,000ft
Speed:
(Current/Filed)
150kts
Departed: 18-Jan-20 05:24 PM
Arrived: 18-Jan-20 07:12 PM
Distance/Time
Traveled:
182nm/1:48
Distance/Time
To Go:
Arrived

Flight Plot

Page will automatically refresh every two minutes.


Map Options




Map Legend


Flown Route
Filed Route
Departure Airport
Arrival Airport
Navaid (VOR, NDB)
Fix

Horizontal Profiles

Position Reports

Time Latitude Longitude Heading Altitude Ground
Speed
18-Jan-20 17:08 33.896983 -117.607296 180 536ft 0kts
18-Jan-20 17:09 33.896983 -117.607296 180 536ft 0kts
18-Jan-20 17:10 33.896983 -117.607296 180 536ft 0kts
18-Jan-20 17:11 33.897010 -117.607077 38 536ft 0kts
18-Jan-20 17:12 33.897010 -117.607077 38 536ft 0kts
18-Jan-20 17:13 33.897010 -117.607077 38 536ft 0kts
18-Jan-20 17:14 33.897010 -117.607077 38 536ft 0kts
18-Jan-20 17:15 33.897010 -117.607077 38 536ft 0kts
18-Jan-20 17:16 33.897010 -117.607077 38 536ft 0kts
18-Jan-20 17:17 33.897010 -117.607077 39 536ft 0kts
18-Jan-20 17:18 33.897011 -117.607076 38 536ft 0kts
18-Jan-20 17:19 33.897121 -117.607159 274 536ft 0kts
18-Jan-20 17:20 33.897184 -117.607397 280 536ft 0kts
18-Jan-20 17:21 33.897184 -117.607397 280 536ft 0kts
18-Jan-20 17:22 33.897638 -117.606736 89 536ft 25kts
18-Jan-20 17:23 33.897657 -117.605168 90 536ft 44kts
18-Jan-20 17:24 33.904887 -117.583878 54 1591ft 79kts
18-Jan-20 17:25 33.912028 -117.557874 73 2834ft 88kts
18-Jan-20 17:26 33.921433 -117.524222 64 3774ft 109kts
18-Jan-20 17:27 33.948420 -117.506374 23 4591ft 121kts
18-Jan-20 17:28 33.980587 -117.489871 22 4952ft 138kts
18-Jan-20 17:29 34.016600 -117.471482 22 3992ft 127kts
18-Jan-20 17:30 34.046049 -117.456465 22 3887ft 109kts
18-Jan-20 17:31 34.072791 -117.442585 23 3861ft 103kts
18-Jan-20 17:32 34.097291 -117.429276 41 3989ft 90kts
18-Jan-20 17:33 34.087971 -117.415560 196 5160ft 86kts
18-Jan-20 17:34 34.063996 -117.421627 187 6278ft 86kts
18-Jan-20 17:35 34.040847 -117.423096 178 7312ft 85kts
18-Jan-20 17:36 34.018580 -117.428492 193 8336ft 79kts
18-Jan-20 17:37 33.998926 -117.438604 259 9012ft 90kts
18-Jan-20 17:38 34.024811 -117.445088 6 9592ft 110kts
18-Jan-20 17:39 34.058088 -117.438374 20 9911ft 137kts
18-Jan-20 17:40 34.091175 -117.419926 352 9909ft 146kts
18-Jan-20 17:41 34.127647 -117.400824 39 9909ft 145kts
18-Jan-20 17:42 34.164997 -117.382109 19 9908ft 145kts
18-Jan-20 17:43 34.201375 -117.361024 27 9907ft 146kts
18-Jan-20 17:44 34.234976 -117.338455 28 10359ft 127kts
18-Jan-20 17:45 34.266788 -117.318856 27 10906ft 139kts
18-Jan-20 17:46 34.303513 -117.296534 27 10908ft 152kts
18-Jan-20 17:47 34.341668 -117.273492 27 10889ft 153kts
18-Jan-20 17:48 34.379748 -117.250348 27 10889ft 153kts
18-Jan-20 17:49 34.417817 -117.227268 27 10889ft 153kts
18-Jan-20 17:50 34.455846 -117.204137 27 10888ft 152kts
18-Jan-20 17:51 34.493397 -117.181165 28 10888ft 151kts
18-Jan-20 17:52 34.531095 -117.158277 26 10889ft 152kts
18-Jan-20 17:53 34.557080 -117.119686 64 10890ft 154kts
18-Jan-20 17:54 34.574969 -117.072593 66 10889ft 154kts
18-Jan-20 17:55 34.592608 -117.025339 65 10890ft 153kts
18-Jan-20 17:56 34.610498 -116.978213 64 10890ft 153kts
18-Jan-20 17:57 34.628018 -116.930978 65 10890ft 153kts
18-Jan-20 17:58 34.645234 -116.883518 65 10890ft 153kts
18-Jan-20 17:59 34.662594 -116.835500 65 10816ft 154kts
18-Jan-20 18:00 34.679768 -116.787821 66 10817ft 153kts
18-Jan-20 18:01 34.696878 -116.740270 66 10817ft 153kts
18-Jan-20 18:02 34.714007 -116.692604 66 10817ft 153kts
18-Jan-20 18:03 34.731086 -116.645063 66 10817ft 153kts
18-Jan-20 18:04 34.748192 -116.597325 66 10817ft 153kts
18-Jan-20 18:05 34.765230 -116.549710 66 10817ft 153kts
18-Jan-20 18:06 34.782270 -116.502029 66 10817ft 153kts
18-Jan-20 18:07 34.802054 -116.456333 49 10817ft 153kts
18-Jan-20 18:08 34.830673 -116.417849 46 10817ft 153kts
18-Jan-20 18:09 34.859710 -116.379674 46 10817ft 153kts
18-Jan-20 18:10 34.888900 -116.341368 47 10817ft 153kts
18-Jan-20 18:11 34.918112 -116.303035 47 10640ft 162kts
18-Jan-20 18:12 34.948864 -116.262584 47 10112ft 158kts
18-Jan-20 18:13 34.977622 -116.224768 47 9816ft 144kts
18-Jan-20 18:14 35.004323 -116.189645 47 9816ft 139kts
18-Jan-20 18:15 35.030580 -116.155035 47 9816ft 139kts
18-Jan-20 18:16 35.056786 -116.120444 47 9816ft 139kts
18-Jan-20 18:17 35.082985 -116.085830 47 9817ft 139kts
18-Jan-20 18:18 35.109218 -116.051128 47 9817ft 139kts
18-Jan-20 18:19 35.135427 -116.016422 47 9817ft 139kts
18-Jan-20 18:20 35.161613 -115.981713 47 9817ft 139kts
18-Jan-20 18:21 35.187771 -115.947000 47 9817ft 139kts
18-Jan-20 18:22 35.213866 -115.912331 47 9817ft 139kts
18-Jan-20 18:23 35.240003 -115.877544 47 9817ft 139kts
18-Jan-20 18:24 35.266114 -115.842775 47 9817ft 139kts
18-Jan-20 18:25 35.292264 -115.807770 47 9816ft 139kts
18-Jan-20 18:26 35.318355 -115.772927 47 9816ft 139kts
18-Jan-20 18:27 35.344439 -115.737999 47 9816ft 139kts
18-Jan-20 18:28 35.370535 -115.703092 47 9816ft 139kts
18-Jan-20 18:29 35.396700 -115.668080 47 9816ft 139kts
18-Jan-20 18:30 35.423693 -115.634222 45 9816ft 139kts
18-Jan-20 18:31 35.450274 -115.599881 47 9816ft 139kts
18-Jan-20 18:32 35.476527 -115.564905 47 9816ft 139kts
18-Jan-20 18:33 35.502651 -115.529702 48 9817ft 142kts
18-Jan-20 18:34 35.530216 -115.492517 47 9816ft 149kts
18-Jan-20 18:35 35.558287 -115.454717 47 9816ft 149kts
18-Jan-20 18:36 35.586322 -115.416943 47 9816ft 150kts
18-Jan-20 18:37 35.614338 -115.379158 47 9816ft 150kts
18-Jan-20 18:38 35.639752 -115.339773 88 9857ft 145kts
18-Jan-20 18:39 35.666410 -115.302816 44 9817ft 149kts
18-Jan-20 18:40 35.695487 -115.266162 46 9816ft 149kts
18-Jan-20 18:41 35.723842 -115.228611 47 9817ft 149kts
18-Jan-20 18:42 35.752164 -115.191152 47 9817ft 149kts
18-Jan-20 18:43 35.785820 -115.160690 9 9387ft 161kts
18-Jan-20 18:44 35.830383 -115.157068 3 8825ft 160kts
18-Jan-20 18:46 35.874672 -115.154844 1 8283ft 159kts
18-Jan-20 18:47 35.917214 -115.153133 1 7818ft 143kts
18-Jan-20 18:48 35.955548 -115.151490 2 7816ft 135kts
18-Jan-20 18:49 35.993026 -115.149751 2 7816ft 135kts
18-Jan-20 18:50 36.030482 -115.147893 2 7817ft 135kts
18-Jan-20 18:51 36.067298 -115.150260 320 7813ft 136kts
18-Jan-20 18:52 36.094040 -115.183435 314 7817ft 136kts
18-Jan-20 18:53 36.120695 -115.216934 314 7817ft 136kts
18-Jan-20 18:54 36.147319 -115.250228 314 7817ft 136kts
18-Jan-20 18:55 36.173868 -115.283255 314 7999ft 128kts
18-Jan-20 18:56 36.200586 -115.316290 315 8318ft 147kts
18-Jan-20 18:57 36.229940 -115.352400 315 8317ft 149kts
18-Jan-20 18:58 36.259433 -115.388506 315 8317ft 149kts
18-Jan-20 18:59 36.289058 -115.424592 315 8317ft 149kts
18-Jan-20 19:00 36.318662 -115.460473 315 8317ft 149kts
18-Jan-20 19:01 36.348481 -115.496434 316 8317ft 149kts
18-Jan-20 19:02 36.373401 -115.476241 103 8311ft 150kts
18-Jan-20 19:03 36.361273 -115.424304 102 7817ft 160kts
18-Jan-20 19:04 36.347486 -115.372798 113 7386ft 157kts
18-Jan-20 19:04 36.324316 -115.338283 133 7010ft 156kts
18-Jan-20 19:06 36.296834 -115.303179 134 5852ft 111kts
18-Jan-20 19:07 36.276150 -115.276953 134 4825ft 80kts
18-Jan-20 19:07 36.264093 -115.261653 134 3713ft 79kts
18-Jan-20 19:09 36.244588 -115.236884 133 3238ft 88kts
18-Jan-20 19:09 36.229860 -115.217863 134 2803ft 95kts
18-Jan-20 19:10 36.211529 -115.195266 134 2242ft 84kts
18-Jan-20 19:12 36.205734 -115.187272 129 2208ft 4kts
18-Jan-20 19:12 36.205444 -115.186796 125 2208ft 0kts
18-Jan-20 19:14 36.205414 -115.186744 125 2208ft 0kts

Navigation Log

Ident Type
Flight plan parsing failed, navigation log unavailable